createdAt,value
2019-05-25T00:01:27.575Z,93.30
2019-05-25T00:03:59.016Z,93.40
2019-05-25T00:06:27.813Z,93.50
2019-05-25T00:09:02.616Z,93.70
2019-05-25T00:11:37.172Z,93.70
2019-05-25T00:14:11.752Z,93.80
2019-05-25T00:16:40.528Z,93.90
2019-05-25T00:19:09.416Z,93.90
2019-05-25T00:21:38.198Z,94.00
2019-05-25T00:24:12.105Z,94.00
2019-05-25T00:26:37.483Z,94.00
2019-05-25T00:29:08.319Z,94.00
2019-05-25T00:31:43.105Z,94.10
2019-05-25T00:34:12.038Z,94.20
2019-05-25T00:36:41.021Z,94.40
2019-05-25T00:39:09.852Z,94.60
2019-05-25T00:41:41.566Z,94.70
2019-05-25T00:44:16.404Z,94.90
2019-05-25T00:46:47.438Z,94.90
2019-05-25T00:49:17.176Z,95.00
2019-05-25T00:51:52.897Z,95.10
2019-05-25T00:54:28.095Z,95.30
2019-05-25T00:56:55.801Z,95.10
2019-05-25T00:59:30.331Z,95.30
2019-05-25T01:02:03.002Z,95.30
2019-05-25T01:04:31.916Z,95.30
2019-05-25T01:07:00.887Z,95.30
2019-05-25T01:09:31.708Z,95.40
2019-05-25T01:12:00.476Z,95.40
2019-05-25T01:14:35.417Z,95.40
2019-05-25T01:17:06.360Z,95.40
2019-05-25T01:19:41.034Z,95.40
2019-05-25T01:22:09.827Z,95.50
2019-05-25T01:24:56.379Z,95.50
2019-05-25T01:27:31.009Z,95.50
2019-05-25T01:29:59.989Z,95.50
2019-05-25T01:32:34.740Z,95.50
2019-05-25T01:35:10.763Z,95.50
2019-05-25T01:37:48.345Z,95.50
2019-05-25T01:40:17.284Z,95.50
2019-05-25T01:42:46.175Z,95.50
2019-05-25T01:45:20.678Z,95.60
2019-05-25T01:47:49.693Z,95.60
2019-05-25T01:50:18.480Z,95.60
2019-05-25T01:52:47.482Z,95.70
2019-05-25T01:55:16.223Z,95.70
2019-05-25T01:57:47.200Z,95.80
2019-05-25T02:00:22.178Z,95.80
2019-05-25T02:02:51.226Z,95.90
2019-05-25T02:05:23.120Z,95.90
2019-05-25T02:07:54.743Z,95.90
2019-05-25T02:10:26.632Z,96.40
2019-05-25T02:12:55.428Z,96.00
2019-05-25T02:15:24.256Z,96.10
2019-05-25T02:17:53.064Z,96.20
2019-05-25T02:20:22.818Z,96.20
2019-05-25T02:22:51.635Z,96.20
2019-05-25T02:25:20.432Z,96.30
2019-05-25T02:27:51.865Z,96.30
2019-05-25T02:30:23.641Z,96.20
2019-05-25T02:32:55.170Z,96.10
2019-05-25T02:35:27.123Z,96.10
2019-05-25T02:37:57.072Z,96.00
2019-05-25T02:40:26.003Z,95.90
2019-05-25T02:42:56.751Z,95.80
2019-05-25T02:45:25.590Z,95.70
2019-05-25T02:47:54.425Z,95.60
2019-05-25T02:50:23.265Z,95.50
2019-05-25T02:52:52.164Z,95.40
2019-05-25T02:55:33.864Z,95.30
2019-05-25T02:57:52.867Z,95.30
2019-05-25T03:00:24.636Z,95.20
2019-05-25T03:02:53.472Z,95.20
2019-05-25T03:05:22.261Z,95.20
2019-05-25T03:07:56.108Z,95.20
2019-05-25T03:10:24.894Z,95.30
2019-05-25T03:12:55.568Z,95.30
2019-05-25T03:15:24.477Z,95.40
2019-05-25T03:17:58.978Z,95.30
2019-05-25T03:20:30.835Z,95.20
2019-05-25T03:23:00.729Z,95.20
2019-05-25T03:25:29.523Z,95.10
2019-05-25T03:27:58.344Z,95.20
2019-05-25T03:30:33.202Z,95.20
2019-05-25T03:33:07.741Z,95.30
2019-05-25T03:35:36.564Z,95.30
2019-05-25T03:38:05.343Z,95.40
2019-05-25T03:40:39.921Z,95.30
2019-05-25T03:43:08.712Z,95.40
2019-05-25T03:45:37.672Z,95.40
2019-05-25T03:48:06.573Z,95.40
2019-05-25T03:50:38.569Z,95.50
2019-05-25T03:53:07.361Z,95.50
2019-05-25T03:55:36.318Z,95.60
2019-05-25T03:58:05.321Z,95.70
2019-05-25T04:00:38.413Z,95.70
2019-05-25T04:03:10.817Z,95.90
2019-05-25T04:05:42.168Z,95.90
2019-05-25T04:08:10.952Z,96.00
2019-05-25T04:10:39.773Z,96.10
2019-05-25T04:13:08.551Z,96.20
2019-05-25T04:15:37.328Z,96.20
2019-05-25T04:18:06.147Z,96.20
2019-05-25T04:20:36.132Z,96.20
2019-05-25T04:23:09.027Z,96.40
2019-05-25T04:25:38.871Z,96.40
2019-05-25T04:28:08.635Z,96.40
2019-05-25T04:30:37.420Z,96.20
2019-05-25T04:33:12.004Z,96.20
2019-05-25T04:35:40.782Z,96.30
2019-05-25T04:38:09.571Z,96.50
2019-05-25T04:40:40.406Z,96.60
2019-05-25T04:43:15.067Z,96.70
2019-05-25T04:45:49.860Z,96.80
2019-05-25T04:48:24.592Z,96.90
2019-05-25T04:50:59.118Z,97.00
2019-05-25T04:53:33.666Z,96.90
2019-05-25T04:56:02.474Z,96.80
2019-05-25T04:58:31.306Z,96.80
2019-05-25T05:01:05.790Z,96.70
2019-05-25T05:03:34.621Z,96.70
2019-05-25T05:06:09.342Z,96.80
2019-05-25T05:08:39.107Z,96.80
2019-05-25T05:11:07.886Z,96.90
2019-05-25T05:13:36.732Z,96.80
2019-05-25T05:16:06.509Z,96.80
2019-05-25T05:18:35.296Z,96.70
2019-05-25T05:21:06.795Z,96.70
2019-05-25T05:23:41.511Z,96.60
2019-05-25T05:26:16.336Z,96.40
2019-05-25T05:28:49.252Z,96.40
2019-05-25T05:31:23.630Z,96.30
2019-05-25T05:33:51.806Z,96.30
2019-05-25T05:36:22.576Z,96.10
2019-05-25T05:38:53.923Z,96.10
2019-05-25T05:41:26.899Z,96.00
2019-05-25T05:43:57.726Z,95.80
2019-05-25T05:46:28.151Z,95.80
2019-05-25T05:48:58.065Z,95.80
2019-05-25T05:51:29.933Z,95.70
2019-05-25T05:54:03.324Z,95.70
2019-05-25T05:56:34.740Z,95.90
2019-05-25T05:59:06.205Z,95.90
2019-05-25T06:01:40.999Z,95.90
2019-05-25T06:04:11.775Z,95.90
2019-05-25T06:06:43.191Z,96.10
2019-05-25T06:09:12.030Z,96.30
2019-05-25T06:11:41.826Z,96.50
2019-05-25T06:14:10.979Z,97.00
2019-05-25T06:16:39.821Z,97.20
2019-05-25T06:19:09.595Z,97.50
2019-05-25T06:21:38.393Z,98.00
2019-05-25T06:24:07.334Z,98.50
2019-05-25T06:26:36.145Z,98.80
2019-05-25T06:29:05.137Z,98.90
2019-05-25T06:31:33.991Z,99.10
2019-05-25T06:34:08.732Z,99.30
2019-05-25T06:36:37.551Z,99.40
2019-05-25T06:39:08.145Z,99.60
2019-05-25T06:41:36.933Z,99.90
2019-05-25T06:44:06.306Z,99.90
2019-05-25T06:46:35.123Z,99.90
2019-05-25T06:49:06.531Z,99.90
2019-05-25T06:51:35.448Z,99.90
2019-05-25T06:54:10.079Z,99.90
2019-05-25T06:56:38.963Z,99.90
2019-05-25T06:59:08.779Z,99.90
2019-05-25T07:01:40.333Z,99.90
2019-05-25T07:04:15.054Z,99.90
2019-05-25T07:06:47.119Z,99.90
2019-05-25T07:09:22.065Z,99.90
2019-05-25T07:11:50.947Z,99.90
2019-05-25T07:14:25.776Z,99.90
2019-05-25T07:16:54.665Z,99.90
2019-05-25T07:19:23.557Z,99.90
2019-05-25T07:21:53.681Z,99.90
2019-05-25T07:24:23.691Z,99.90
2019-05-25T07:26:52.686Z,99.90
2019-05-25T07:29:21.516Z,99.90
2019-05-25T07:31:56.099Z,99.90
2019-05-25T07:34:24.989Z,99.90
2019-05-25T07:36:56.951Z,99.90
2019-05-25T07:39:31.412Z,99.90
2019-05-25T07:42:02.392Z,99.90
2019-05-25T07:44:31.407Z,99.90
2019-05-25T07:47:06.102Z,99.90
2019-05-25T07:49:35.886Z,99.90
2019-05-25T07:52:04.933Z,99.90
2019-05-25T07:54:39.765Z,99.90
2019-05-25T07:57:09.883Z,99.90
2019-05-25T07:59:44.713Z,99.90
2019-05-25T08:02:13.707Z,99.90
2019-05-25T08:04:42.598Z,99.90
2019-05-25T08:07:11.487Z,99.90
2019-05-25T08:09:42.938Z,99.90
2019-05-25T08:12:11.711Z,99.90
2019-05-25T08:14:44.914Z,99.90
2019-05-25T08:17:12.268Z,99.90
2019-05-25T08:19:41.161Z,99.90
2019-05-25T08:22:10.049Z,99.90
2019-05-25T08:24:39.004Z,99.90
2019-05-25T08:27:09.878Z,99.90
2019-05-25T08:29:41.031Z,99.90
2019-05-25T08:32:12.987Z,99.90
2019-05-25T08:34:47.916Z,99.90
2019-05-25T08:37:19.571Z,99.90
2019-05-25T08:39:48.350Z,99.70
2019-05-25T08:42:17.352Z,99.60
2019-05-25T08:44:52.285Z,98.90
2019-05-25T08:47:23.824Z,98.20
2019-05-25T08:49:52.854Z,97.30
2019-05-25T08:52:27.412Z,97.10
2019-05-25T08:54:56.659Z,95.90
2019-05-25T08:57:31.355Z,95.40
2019-05-25T09:00:03.611Z,96.00
2019-05-25T09:02:32.541Z,95.30
2019-05-25T09:05:05.648Z,94.50
2019-05-25T09:07:35.487Z,94.20
2019-05-25T09:10:06.374Z,94.30
2019-05-25T09:12:36.161Z,93.80
2019-05-25T09:15:06.690Z,93.90
2019-05-25T09:17:38.154Z,94.50
2019-05-25T09:20:09.975Z,94.60
2019-05-25T09:22:38.825Z,95.10
2019-05-25T09:25:10.534Z,95.40
2019-05-25T09:27:39.319Z,95.50
2019-05-25T09:30:10.360Z,94.60
2019-05-25T09:32:41.957Z,93.80
2019-05-25T09:35:12.165Z,92.70
2019-05-25T09:37:43.638Z,92.20
2019-05-25T09:40:12.635Z,92.40
2019-05-25T09:42:47.449Z,92.40
2019-05-25T09:45:16.350Z,91.70
2019-05-25T09:47:50.835Z,91.20
2019-05-25T09:50:19.618Z,90.40
2019-05-25T09:52:48.456Z,89.90
2019-05-25T09:55:18.194Z,88.90
2019-05-25T09:57:46.991Z,88.80
2019-05-25T10:00:17.702Z,86.70
2019-05-25T10:02:46.893Z,84.80
2019-05-25T10:05:16.918Z,81.50
2019-05-25T10:07:47.770Z,80.90
2019-05-25T10:10:17.458Z,81.60
2019-05-25T10:12:46.253Z,82.10
2019-05-25T10:15:15.408Z,82.50
2019-05-25T10:17:44.200Z,82.30
2019-05-25T10:20:16.187Z,82.20
2019-05-25T10:22:45.020Z,82.70
2019-05-25T10:25:14.211Z,82.60
2019-05-25T10:27:42.998Z,82.60
2019-05-25T10:30:12.435Z,82.40
2019-05-25T10:32:41.245Z,82.40
2019-05-25T10:35:11.395Z,82.10
2019-05-25T10:37:40.251Z,82.30
2019-05-25T10:40:14.892Z,82.30
2019-05-25T10:42:45.707Z,82.10
2019-05-25T10:45:20.277Z,81.00
2019-05-25T10:47:49.081Z,79.90
2019-05-25T10:50:21.583Z,78.20
2019-05-25T10:52:50.448Z,76.50
2019-05-25T10:55:19.438Z,76.10
2019-05-25T10:57:48.267Z,75.80
2019-05-25T11:00:19.751Z,75.50
2019-05-25T11:02:48.614Z,75.90
2019-05-25T11:05:23.203Z,76.60
2019-05-25T11:07:55.774Z,77.10
2019-05-25T11:10:24.581Z,77.40
2019-05-25T11:12:56.004Z,78.00
2019-05-25T11:15:24.840Z,77.10
2019-05-25T11:18:00.730Z,75.50
2019-05-25T11:20:32.168Z,74.70
2019-05-25T11:23:00.989Z,74.00
2019-05-25T11:25:29.786Z,73.10
2019-05-25T11:27:58.631Z,71.70
2019-05-25T11:30:27.452Z,72.50
2019-05-25T11:32:56.258Z,71.40
2019-05-25T11:35:26.212Z,70.90
2019-05-25T11:37:55.970Z,70.70
2019-05-25T11:40:24.848Z,70.40
2019-05-25T11:42:53.829Z,69.80
2019-05-25T11:45:24.321Z,69.20
2019-05-25T11:47:54.090Z,69.00
2019-05-25T11:50:22.949Z,69.50
2019-05-25T11:52:52.880Z,69.70
2019-05-25T11:55:24.347Z,69.80
2019-05-25T11:57:53.175Z,69.60
2019-05-25T12:00:25.878Z,69.60
2019-05-25T12:02:56.092Z,68.60
2019-05-25T12:05:24.879Z,67.10
2019-05-25T12:07:57.227Z,67.90
2019-05-25T12:10:27.049Z,68.80
2019-05-25T12:13:01.739Z,68.50
2019-05-25T12:15:30.510Z,68.20
2019-05-25T12:17:59.378Z,67.30
2019-05-25T12:20:28.201Z,67.00
2019-05-25T12:22:56.997Z,67.80
2019-05-25T12:25:25.826Z,67.60
2019-05-25T12:27:55.585Z,66.00
2019-05-25T12:30:39.380Z,65.50
2019-05-25T12:32:55.363Z,65.30
2019-05-25T12:35:26.775Z,65.00
2019-05-25T12:37:55.591Z,65.30
2019-05-25T12:40:24.419Z,65.30
2019-05-25T12:42:53.222Z,64.70
2019-05-25T12:45:23.980Z,63.40
2019-05-25T12:47:54.483Z,62.70
2019-05-25T12:50:23.569Z,62.40
2019-05-25T12:52:52.371Z,62.20
2019-05-25T12:55:21.208Z,62.20
2019-05-25T12:57:52.003Z,62.30
2019-05-25T13:00:20.895Z,61.50
2019-05-25T13:02:49.790Z,61.60
2019-05-25T13:05:33.049Z,61.40
2019-05-25T13:07:49.034Z,61.90
2019-05-25T13:10:20.506Z,61.40
2019-05-25T13:12:49.303Z,61.40
2019-05-25T13:15:18.144Z,60.50
2019-05-25T13:17:50.138Z,60.90
2019-05-25T13:20:24.694Z,60.30
2019-05-25T13:22:53.490Z,61.00
2019-05-25T13:25:22.326Z,61.10
2019-05-25T13:27:53.747Z,61.70
2019-05-25T13:30:22.534Z,61.90
2019-05-25T13:32:51.395Z,61.90
2019-05-25T13:35:20.206Z,62.50
2019-05-25T13:37:48.981Z,62.50
2019-05-25T13:40:17.837Z,62.50
2019-05-25T13:42:46.615Z,62.80
2019-05-25T13:45:21.182Z,63.70
2019-05-25T13:47:49.968Z,64.50
2019-05-25T13:50:22.151Z,64.70
2019-05-25T13:52:51.012Z,64.50
2019-05-25T13:55:19.848Z,64.60
2019-05-25T13:57:49.642Z,64.80
2019-05-25T14:00:18.633Z,64.80
2019-05-25T14:02:47.410Z,65.10
2019-05-25T14:05:16.500Z,65.60
2019-05-25T14:07:45.350Z,65.60
2019-05-25T14:10:15.170Z,65.60
2019-05-25T14:12:46.843Z,65.70
2019-05-25T14:15:16.349Z,65.80
2019-05-25T14:17:45.127Z,66.50
2019-05-25T14:20:20.033Z,66.70
2019-05-25T14:22:51.498Z,67.30
2019-05-25T14:25:23.617Z,67.80
2019-05-25T14:27:52.402Z,68.50
2019-05-25T14:30:24.041Z,69.40
2019-05-25T14:32:52.839Z,69.80
2019-05-25T14:35:23.613Z,70.00
2019-05-25T14:37:52.125Z,70.30
2019-05-25T14:40:26.851Z,70.40
2019-05-25T14:42:55.667Z,70.20
2019-05-25T14:45:24.701Z,70.40
2019-05-25T14:47:53.488Z,70.50
2019-05-25T14:50:22.273Z,70.00
2019-05-25T14:52:51.118Z,70.20
2019-05-25T14:55:19.935Z,71.00
2019-05-25T14:57:48.726Z,70.90
2019-05-25T15:00:20.812Z,70.20
2019-05-25T15:02:55.334Z,70.50
2019-05-25T15:05:24.122Z,70.80
2019-05-25T15:07:56.008Z,70.60
2019-05-25T15:10:26.890Z,70.90
2019-05-25T15:12:55.678Z,71.00
2019-05-25T15:15:24.524Z,71.00
2019-05-25T15:17:54.263Z,71.30
2019-05-25T15:20:23.077Z,71.80
2019-05-25T15:22:54.575Z,72.00
2019-05-25T15:25:23.371Z,72.40
2019-05-25T15:27:57.890Z,71.40
2019-05-25T15:30:26.771Z,72.00
2019-05-25T15:32:58.767Z,72.90
2019-05-25T15:35:27.569Z,73.40
2019-05-25T15:37:56.389Z,73.80
2019-05-25T15:40:26.223Z,73.70
2019-05-25T15:42:56.266Z,74.00
2019-05-25T15:45:25.146Z,74.20
2019-05-25T15:47:53.946Z,74.60
2019-05-25T15:50:23.243Z,74.60
2019-05-25T15:52:52.100Z,74.60
2019-05-25T15:55:26.833Z,75.00
2019-05-25T15:57:58.846Z,74.90
2019-05-25T16:00:47.910Z,74.60
2019-05-25T16:03:18.032Z,74.80
2019-05-25T16:05:47.694Z,75.00
2019-05-25T16:08:18.966Z,75.30
2019-05-25T16:10:48.279Z,75.40
2019-05-25T16:13:17.266Z,77.00
2019-05-25T16:15:46.073Z,76.60
2019-05-25T16:18:14.903Z,75.90
2019-05-25T16:20:45.686Z,75.90
2019-05-25T16:23:23.048Z,76.20
2019-05-25T16:25:51.853Z,76.30
2019-05-25T16:28:20.654Z,76.30
2019-05-25T16:30:49.793Z,76.60
2019-05-25T16:33:21.226Z,77.20
2019-05-25T16:35:50.132Z,77.60
2019-05-25T16:38:22.237Z,78.50
2019-05-25T16:40:53.855Z,78.70
2019-05-25T16:43:28.480Z,79.30
2019-05-25T16:46:03.209Z,79.60
2019-05-25T16:48:34.758Z,80.10
2019-05-25T16:51:09.799Z,81.10
2019-05-25T16:53:41.742Z,80.60
2019-05-25T16:56:10.648Z,81.10
2019-05-25T16:58:39.642Z,81.30
2019-05-25T17:01:11.192Z,81.60
2019-05-25T17:03:43.052Z,81.70
2019-05-25T17:06:12.899Z,81.80
2019-05-25T17:08:43.091Z,81.70
2019-05-25T17:11:11.870Z,81.60
2019-05-25T17:13:40.833Z,81.20
2019-05-25T17:16:10.985Z,81.10
2019-05-25T17:18:42.848Z,80.80
2019-05-25T17:21:11.655Z,80.20
2019-05-25T17:23:40.516Z,81.00
2019-05-25T17:26:11.959Z,82.00
2019-05-25T17:28:40.741Z,82.40
2019-05-25T17:31:09.586Z,82.70
2019-05-25T17:33:46.057Z,82.30
2019-05-25T17:36:14.809Z,82.30
2019-05-25T17:38:46.367Z,81.60
2019-05-25T17:41:18.322Z,80.80
2019-05-25T17:43:47.315Z,78.90
2019-05-25T17:46:17.231Z,78.50
2019-05-25T17:48:48.167Z,78.40
2019-05-25T17:51:19.213Z,78.10
2019-05-25T17:53:51.173Z,79.40
2019-05-25T17:56:22.620Z,80.60
2019-05-25T17:58:54.691Z,81.80
2019-05-25T18:01:26.149Z,82.20
2019-05-25T18:04:06.814Z,82.10
2019-05-25T18:06:28.221Z,82.00
2019-05-25T18:08:57.120Z,82.20
2019-05-25T18:11:27.130Z,82.50
2019-05-25T18:13:56.121Z,82.30
2019-05-25T18:16:30.846Z,82.40
2019-05-25T18:19:05.635Z,82.30
2019-05-25T18:21:35.546Z,82.20
2019-05-25T18:24:04.576Z,82.40
2019-05-25T18:26:33.686Z,82.90
2019-05-25T18:29:02.674Z,83.00
2019-05-25T18:31:31.767Z,83.30
2019-05-25T18:34:00.762Z,83.40
2019-05-25T18:36:30.677Z,83.60
2019-05-25T18:38:59.470Z,83.50
2019-05-25T18:41:28.352Z,83.70
2019-05-25T18:43:57.243Z,83.90
2019-05-25T18:46:32.056Z,84.00
2019-05-25T18:49:09.582Z,84.20
2019-05-25T18:51:38.414Z,84.10
2019-05-25T18:54:07.197Z,84.30
2019-05-25T18:56:36.125Z,84.30
2019-05-25T18:59:04.911Z,84.40
2019-05-25T19:01:36.773Z,84.40
2019-05-25T19:04:11.718Z,84.60
2019-05-25T19:06:43.531Z,84.60
2019-05-25T19:09:12.310Z,84.70
2019-05-25T19:11:41.214Z,84.80
2019-05-25T19:14:09.999Z,85.20
2019-05-25T19:16:38.787Z,85.40
2019-05-25T19:19:07.619Z,85.50
2019-05-25T19:21:37.362Z,85.70
2019-05-25T19:24:06.178Z,85.80
2019-05-25T19:26:35.431Z,86.00
2019-05-25T19:29:10.052Z,86.30
2019-05-25T19:31:44.692Z,86.40
2019-05-25T19:34:13.494Z,86.60
2019-05-25T19:36:45.159Z,86.70
2019-05-25T19:39:14.016Z,86.60
2019-05-25T19:41:42.918Z,86.70
2019-05-25T19:44:11.755Z,86.60
2019-05-25T19:46:40.742Z,86.80
2019-05-25T19:49:09.578Z,87.00
2019-05-25T19:51:38.414Z,87.30
2019-05-25T19:54:07.239Z,87.10
2019-05-25T19:56:38.091Z,87.20
2019-05-25T19:59:06.879Z,87.30
2019-05-25T20:01:35.728Z,87.60
2019-05-25T20:04:04.507Z,87.80
2019-05-25T20:06:35.951Z,87.90
2019-05-25T20:09:06.956Z,87.90
2019-05-25T20:11:39.327Z,88.00
2019-05-25T20:14:08.123Z,88.20
2019-05-25T20:16:37.913Z,88.50
2019-05-25T20:19:09.721Z,88.60
2019-05-25T20:21:38.505Z,89.30
2019-05-25T20:24:07.401Z,89.40
2019-05-25T20:26:37.196Z,89.60
2019-05-25T20:29:06.020Z,89.80
2019-05-25T20:31:37.513Z,90.10
2019-05-25T20:34:06.330Z,90.20
2019-05-25T20:36:35.111Z,90.30
2019-05-25T20:39:05.173Z,90.50
2019-05-25T20:41:33.967Z,90.50
2019-05-25T20:44:02.750Z,90.80
2019-05-25T20:46:31.596Z,90.70
2019-05-25T20:49:00.663Z,90.80
2019-05-25T20:51:29.458Z,90.80
2019-05-25T20:53:58.533Z,90.80
2019-05-25T20:56:27.561Z,90.80
2019-05-25T20:59:02.306Z,90.90
2019-05-25T21:01:31.227Z,91.00
2019-05-25T21:04:00.938Z,91.10
2019-05-25T21:06:35.721Z,91.30
2019-05-25T21:09:07.030Z,91.40
2019-05-25T21:11:41.636Z,91.70
2019-05-25T21:14:12.574Z,91.80
2019-05-25T21:16:44.654Z,91.80
2019-05-25T21:19:14.465Z,91.80
2019-05-25T21:21:49.196Z,91.90
2019-05-25T21:24:17.965Z,92.00
2019-05-25T21:26:49.638Z,92.10
2019-05-25T21:29:21.601Z,92.20
2019-05-25T21:31:51.517Z,92.20
2019-05-25T21:34:23.274Z,92.20
2019-05-25T21:36:52.166Z,92.30
2019-05-25T21:39:21.056Z,92.30
2019-05-25T21:41:49.946Z,92.50
2019-05-25T21:44:19.707Z,92.60
2019-05-25T21:46:48.503Z,92.80
2019-05-25T21:49:17.352Z,93.00
2019-05-25T21:51:48.231Z,93.10
2019-05-25T21:54:19.691Z,93.30
2019-05-25T21:56:54.634Z,93.50
2019-05-25T21:59:23.646Z,93.60
2019-05-25T22:01:52.638Z,93.80
2019-05-25T22:04:24.099Z,93.90
2019-05-25T22:06:52.913Z,94.10
2019-05-25T22:09:21.718Z,94.30
2019-05-25T22:11:50.559Z,94.50
2019-05-25T22:14:22.856Z,94.80
2019-05-25T22:16:51.666Z,94.90
2019-05-25T22:19:26.555Z,95.10
2019-05-25T22:21:55.423Z,95.20
2019-05-25T22:24:24.432Z,95.30
2019-05-25T22:26:56.086Z,95.50
2019-05-25T22:29:30.708Z,95.60
2019-05-25T22:32:02.554Z,95.70
2019-05-25T22:34:31.350Z,95.80
2019-05-25T22:37:00.348Z,95.90
2019-05-25T22:39:29.341Z,96.10
2019-05-25T22:41:58.336Z,96.20
2019-05-25T22:44:29.204Z,96.30
2019-05-25T22:47:01.479Z,96.40
2019-05-25T22:49:30.284Z,96.60
2019-05-25T22:51:59.079Z,96.90
2019-05-25T22:54:27.927Z,96.70
2019-05-25T22:56:56.804Z,96.90
2019-05-25T22:59:31.296Z,96.90
2019-05-25T23:02:02.774Z,96.90
2019-05-25T23:04:34.733Z,97.00
2019-05-25T23:07:03.727Z,97.10
2019-05-25T23:09:33.523Z,97.10
2019-05-25T23:12:02.754Z,97.20
2019-05-25T23:14:31.830Z,97.20
2019-05-25T23:17:01.692Z,97.20
2019-05-25T23:19:32.447Z,97.40
2019-05-25T23:22:01.238Z,97.50
2019-05-25T23:24:30.092Z,97.60
2019-05-25T23:26:58.877Z,97.90
2019-05-25T23:29:27.682Z,98.00
2019-05-25T23:31:56.521Z,98.00
2019-05-25T23:34:31.303Z,98.20
2019-05-25T23:37:13.683Z,98.30
2019-05-25T23:39:31.606Z,98.50
2019-05-25T23:42:06.449Z,98.60
2019-05-25T23:44:35.366Z,98.70
2019-05-25T23:47:04.196Z,98.90
2019-05-25T23:49:33.013Z,99.10
2019-05-25T23:52:07.526Z,99.30
2019-05-25T23:54:36.364Z,99.40
2019-05-25T23:57:05.642Z,99.60
2019-05-25T23:59:34.443Z,99.70
